createdAt,value
2019-05-29T00:00:50.286Z,100330.95
2019-05-29T00:03:22.062Z,100336.52
2019-05-29T00:05:54.193Z,100339.81
2019-05-29T00:08:25.900Z,100339.20
2019-05-29T00:10:58.916Z,100339.20
2019-05-29T00:13:30.688Z,100343.32
2019-05-29T00:16:02.977Z,100343.89
2019-05-29T00:18:34.695Z,100349.73
2019-05-29T00:21:06.865Z,100351.61
2019-05-29T00:23:38.564Z,100345.95
2019-05-29T00:26:44.754Z,100337.64
2019-05-29T00:41:09.207Z,100346.88
2019-05-29T00:43:41.078Z,100348.09
2019-05-29T00:46:13.428Z,100354.16
2019-05-29T00:48:45.312Z,100350.02
2019-05-29T00:51:17.212Z,100356.09
2019-05-29T00:53:50.616Z,100356.31
2019-05-29T00:56:23.708Z,100361.61
2019-05-29T00:58:55.478Z,100360.66
2019-05-29T01:01:29.873Z,100367.36
2019-05-29T01:04:01.843Z,100363.98
2019-05-29T01:06:33.590Z,100366.16
2019-05-29T01:09:06.021Z,100361.38
2019-05-29T01:11:39.571Z,100354.47
2019-05-29T01:14:11.391Z,100359.21
2019-05-29T01:16:43.122Z,100359.84
2019-05-29T01:19:27.240Z,100357.88
2019-05-29T01:21:59.114Z,100364.38
2019-05-29T01:24:33.233Z,100363.58
2019-05-29T01:27:05.094Z,100361.52
2019-05-29T01:29:38.778Z,100368.45
2019-05-29T01:32:10.517Z,100361.45
2019-05-29T01:34:42.299Z,100361.55
2019-05-29T01:37:14.540Z,100370.56
2019-05-29T01:39:46.404Z,100368.74
2019-05-29T01:42:19.439Z,100370.45
2019-05-29T01:45:06.554Z,100373.33
2019-05-29T01:47:25.494Z,100373.68
2019-05-29T01:49:57.288Z,100371.61
2019-05-29T01:52:29.119Z,100376.70
2019-05-29T01:55:01.409Z,100376.22
2019-05-29T01:57:33.539Z,100375.23
2019-05-29T02:00:05.787Z,100373.52
2019-05-29T02:02:37.619Z,100379.43
2019-05-29T02:05:11.318Z,100378.56
2019-05-29T02:07:43.101Z,100374.52
2019-05-29T02:10:15.996Z,100382.23
2019-05-29T02:12:47.998Z,100383.81
2019-05-29T02:15:29.364Z,100378.22
2019-05-29T02:17:53.348Z,100382.05
2019-05-29T02:20:25.404Z,100382.23
2019-05-29T02:22:57.233Z,100377.94
2019-05-29T02:25:28.981Z,100386.47
2019-05-29T02:28:00.727Z,100389.52
2019-05-29T02:30:34.478Z,100390.38
2019-05-29T02:33:07.393Z,100390.39
2019-05-29T02:35:39.298Z,100398.50
2019-05-29T02:38:11.075Z,100388.25
2019-05-29T02:40:42.797Z,100394.08
2019-05-29T02:43:16.539Z,100392.99
2019-05-29T02:45:54.156Z,100394.55
2019-05-29T02:48:23.177Z,100401.66
2019-05-29T02:50:55.614Z,100403.44
2019-05-29T02:53:30.857Z,100401.62
2019-05-29T02:56:02.993Z,100403.86
2019-05-29T02:58:34.747Z,100406.36
2019-05-29T03:01:06.771Z,100402.95
2019-05-29T03:03:40.107Z,100398.98
2019-05-29T03:06:12.073Z,100397.92
2019-05-29T03:08:43.844Z,100399.33
2019-05-29T03:11:15.582Z,100402.13
2019-05-29T03:13:47.431Z,100413.38
2019-05-29T03:16:19.377Z,100416.31
2019-05-29T03:18:51.178Z,100420.61
2019-05-29T03:21:24.103Z,100415.08
2019-05-29T03:23:56.612Z,100415.47
2019-05-29T03:26:30.316Z,100414.22
2019-05-29T03:29:01.859Z,100424.44
2019-05-29T03:31:39.687Z,100422.08
2019-05-29T03:34:07.130Z,100425.28
2019-05-29T03:36:47.393Z,100427.16
2019-05-29T03:39:13.934Z,100427.22
2019-05-29T03:41:45.722Z,100431.48
2019-05-29T03:44:17.575Z,100423.70
2019-05-29T03:46:52.533Z,100432.11
2019-05-29T03:49:24.337Z,100434.94
2019-05-29T03:51:57.148Z,100431.75
2019-05-29T03:54:30.614Z,100430.86
2019-05-29T03:57:05.794Z,100424.87
2019-05-29T03:59:37.659Z,100430.20
2019-05-29T04:02:11.815Z,100440.41
2019-05-29T04:04:43.608Z,100443.67
2019-05-29T04:07:15.343Z,100441.50
2019-05-29T04:09:47.115Z,100448.36
2019-05-29T04:12:19.420Z,100455.68
2019-05-29T04:14:51.286Z,100446.08
2019-05-29T04:17:23.033Z,100455.02
2019-05-29T04:19:55.975Z,100448.20
2019-05-29T04:22:32.896Z,100453.39
2019-05-29T04:25:05.472Z,100453.44
2019-05-29T04:27:38.465Z,100465.58
2019-05-29T04:30:10.972Z,100463.47
2019-05-29T04:32:42.695Z,100469.31
2019-05-29T04:35:14.959Z,100473.44
2019-05-29T04:37:46.671Z,100474.26
2019-05-29T04:40:18.392Z,100471.52
2019-05-29T04:42:50.147Z,100477.63
2019-05-29T04:45:21.868Z,100489.66
2019-05-29T04:47:53.614Z,100491.77
2019-05-29T04:50:25.353Z,100490.85
2019-05-29T04:52:57.090Z,100495.23
2019-05-29T04:55:31.218Z,100503.05
2019-05-29T04:58:03.384Z,100508.84
2019-05-29T05:00:35.293Z,100504.42
2019-05-29T05:03:07.064Z,100497.22
2019-05-29T05:05:39.567Z,100495.41
2019-05-29T05:08:11.577Z,100501.59
2019-05-29T05:10:43.290Z,100507.95
2019-05-29T05:13:15.094Z,100502.91
2019-05-29T05:15:46.953Z,100504.91
2019-05-29T05:18:18.735Z,100510.92
2019-05-29T05:20:52.137Z,100512.14
2019-05-29T05:23:23.923Z,100512.71
2019-05-29T05:25:55.655Z,100508.72
2019-05-29T05:28:27.551Z,100506.45
2019-05-29T05:30:59.275Z,100514.22
2019-05-29T05:33:31.090Z,100514.02
2019-05-29T05:36:02.824Z,100518.45
2019-05-29T05:38:34.732Z,100516.05
2019-05-29T05:41:06.523Z,100511.00
2019-05-29T05:43:38.989Z,100511.20
2019-05-29T05:46:11.259Z,100523.19
2019-05-29T05:48:43.018Z,100519.53
2019-05-29T05:51:14.798Z,100517.58
2019-05-29T05:53:46.581Z,100514.38
2019-05-29T05:56:18.378Z,100527.02
2019-05-29T05:58:50.150Z,100514.70
2019-05-29T06:01:22.511Z,100520.61
2019-05-29T06:03:56.266Z,100522.36
2019-05-29T06:06:28.123Z,100520.78
2019-05-29T06:08:59.871Z,100522.69
2019-05-29T06:11:32.213Z,100520.94
2019-05-29T06:14:04.354Z,100521.13
2019-05-29T06:16:36.478Z,100525.06
2019-05-29T06:19:08.465Z,100531.95
2019-05-29T06:21:40.913Z,100526.96
2019-05-29T06:24:14.443Z,100532.91
2019-05-29T06:26:46.220Z,100529.75
2019-05-29T06:29:18.436Z,100529.76
2019-05-29T06:31:52.281Z,100534.14
2019-05-29T06:34:24.105Z,100533.85
2019-05-29T06:36:55.888Z,100537.32
2019-05-29T06:39:27.675Z,100533.67
2019-05-29T06:41:59.485Z,100536.56
2019-05-29T06:44:31.230Z,100539.98
2019-05-29T06:47:04.206Z,100540.52
2019-05-29T06:49:36.027Z,100549.83
2019-05-29T06:52:09.289Z,100541.33
2019-05-29T06:54:42.072Z,100540.52
2019-05-29T06:57:14.076Z,100545.70
2019-05-29T06:59:46.287Z,100538.44
2019-05-29T07:02:18.063Z,100547.13
2019-05-29T07:04:49.783Z,100545.06
2019-05-29T07:07:21.885Z,100539.61
2019-05-29T07:09:54.028Z,100546.66
2019-05-29T07:12:25.805Z,100550.50
2019-05-29T07:14:57.531Z,100544.44
2019-05-29T07:17:29.349Z,100540.80
2019-05-29T07:20:03.983Z,100537.07
2019-05-29T07:22:40.788Z,100540.03
2019-05-29T07:25:12.712Z,100541.95
2019-05-29T07:27:45.134Z,100546.80
2019-05-29T07:30:17.556Z,100545.23
2019-05-29T07:32:56.912Z,100547.23
2019-05-29T07:35:23.145Z,100542.09
2019-05-29T07:37:54.888Z,100546.53
2019-05-29T07:40:26.589Z,100545.38
2019-05-29T07:42:58.420Z,100544.05
2019-05-29T07:45:30.358Z,100544.25
2019-05-29T07:48:02.396Z,100545.88
2019-05-29T07:50:35.421Z,100551.80
2019-05-29T07:53:07.183Z,100546.47
2019-05-29T07:55:38.905Z,100540.19
2019-05-29T07:58:10.747Z,100555.05
2019-05-29T08:01:06.332Z,100545.70
2019-05-29T08:03:16.670Z,100550.17
2019-05-29T08:05:52.652Z,100548.42
2019-05-29T08:08:23.843Z,100543.82
2019-05-29T08:10:55.681Z,100548.63
2019-05-29T08:13:29.217Z,100552.65
2019-05-29T08:16:03.111Z,100552.10
2019-05-29T08:18:34.611Z,100555.37
2019-05-29T08:21:06.344Z,100558.72
2019-05-29T08:23:38.163Z,100561.55
2019-05-29T08:26:09.940Z,100557.72
2019-05-29T08:28:42.818Z,100569.34
2019-05-29T08:31:14.728Z,100559.80
2019-05-29T08:33:47.512Z,100560.11
2019-05-29T08:36:19.308Z,100562.53
2019-05-29T08:38:51.903Z,100568.66
2019-05-29T08:41:23.769Z,100562.16
2019-05-29T08:43:55.547Z,100557.45
2019-05-29T08:46:32.617Z,100561.38
2019-05-29T08:49:02.882Z,100564.09
2019-05-29T08:51:34.624Z,100560.58
2019-05-29T08:54:22.867Z,100558.17
2019-05-29T08:56:39.946Z,100552.55
2019-05-29T08:59:11.804Z,100559.48
2019-05-29T09:01:45.005Z,100555.43
2019-05-29T09:04:17.040Z,100545.39
2019-05-29T09:06:49.242Z,100554.09
2019-05-29T09:09:21.189Z,100561.53
2019-05-29T09:11:53.729Z,100554.46
2019-05-29T09:14:25.925Z,100544.04
2019-05-29T09:16:57.978Z,100542.58
2019-05-29T09:19:31.355Z,100542.77
2019-05-29T09:22:03.057Z,100554.07
2019-05-29T09:24:34.800Z,100552.95
2019-05-29T09:27:06.622Z,100549.23
2019-05-29T09:29:38.330Z,100547.41
2019-05-29T09:32:10.072Z,100541.14
2019-05-29T09:34:41.788Z,100550.17
2019-05-29T09:37:14.202Z,100547.34
2019-05-29T09:39:46.983Z,100546.58
2019-05-29T09:42:20.328Z,100545.37
2019-05-29T09:44:52.204Z,100547.48
2019-05-29T09:47:24.317Z,100541.27
2019-05-29T09:49:56.066Z,100535.21
2019-05-29T09:52:30.649Z,100544.94
2019-05-29T09:55:03.153Z,100545.90
2019-05-29T09:57:34.971Z,100535.97
2019-05-29T10:00:07.468Z,100535.77
2019-05-29T10:02:39.512Z,100535.94
2019-05-29T10:05:11.467Z,100538.33
2019-05-29T10:07:43.436Z,100537.33
2019-05-29T10:10:15.904Z,100540.02
2019-05-29T10:12:47.674Z,100537.67
2019-05-29T10:15:19.949Z,100534.75
2019-05-29T10:17:51.735Z,100531.70
2019-05-29T10:20:23.462Z,100522.09
2019-05-29T10:22:55.694Z,100530.97
2019-05-29T10:25:28.549Z,100536.03
2019-05-29T10:28:00.416Z,100533.97
2019-05-29T10:30:32.195Z,100545.20
2019-05-29T10:33:04.023Z,100538.19
2019-05-29T10:35:35.783Z,100538.97
2019-05-29T10:38:07.572Z,100534.31
2019-05-29T10:40:39.377Z,100535.37
2019-05-29T10:43:11.128Z,100539.14
2019-05-29T10:45:43.479Z,100536.38
2019-05-29T10:48:15.425Z,100535.26
2019-05-29T10:50:50.977Z,100534.50
2019-05-29T10:53:21.406Z,100538.02
2019-05-29T10:55:54.787Z,100533.09
2019-05-29T10:58:26.998Z,100526.66
2019-05-29T11:00:58.843Z,100533.38
2019-05-29T11:03:30.641Z,100532.29
2019-05-29T11:06:02.493Z,100533.55
2019-05-29T11:08:34.334Z,100532.36
2019-05-29T11:11:06.183Z,100537.88
2019-05-29T11:13:37.904Z,100529.92
2019-05-29T11:16:09.729Z,100521.63
2019-05-29T11:18:43.404Z,100518.28
2019-05-29T11:21:15.154Z,100523.84
2019-05-29T11:23:47.732Z,100518.78
2019-05-29T11:26:20.590Z,100521.52
2019-05-29T11:28:52.477Z,100517.73
2019-05-29T11:31:25.710Z,100522.06
2019-05-29T11:33:57.460Z,100518.72
2019-05-29T11:36:29.333Z,100515.29
2019-05-29T11:39:05.973Z,100511.99
2019-05-29T11:41:35.512Z,100515.42
2019-05-29T11:44:07.247Z,100515.06
2019-05-29T11:46:39.004Z,100491.09
2019-05-29T11:49:10.779Z,100510.27
2019-05-29T11:51:44.398Z,100506.08
2019-05-29T11:54:16.529Z,100508.80
2019-05-29T11:56:48.274Z,100512.74
2019-05-29T11:59:20.024Z,100516.00
2019-05-29T12:01:52.932Z,100509.89
2019-05-29T12:04:26.979Z,100512.30
2019-05-29T12:06:59.519Z,100508.41
2019-05-29T12:09:33.623Z,100500.88
2019-05-29T12:12:09.060Z,100494.89
2019-05-29T12:14:58.760Z,100503.57
2019-05-29T12:17:15.080Z,100499.25
2019-05-29T12:19:47.016Z,100500.35
2019-05-29T12:22:20.368Z,100504.44
2019-05-29T12:24:52.501Z,100494.60
2019-05-29T12:27:24.334Z,100487.95
2019-05-29T12:29:56.702Z,100489.47
2019-05-29T12:32:28.816Z,100488.26
2019-05-29T12:35:03.142Z,100483.31
2019-05-29T12:37:35.347Z,100483.73
2019-05-29T12:40:07.412Z,100484.81
2019-05-29T12:42:43.427Z,100478.61
2019-05-29T12:45:15.588Z,100477.47
2019-05-29T12:47:48.815Z,100486.90
2019-05-29T12:50:20.604Z,100475.39
2019-05-29T12:52:53.577Z,100479.17
2019-05-29T12:55:25.645Z,100467.94
2019-05-29T12:57:58.043Z,100472.44
2019-05-29T13:00:29.813Z,100462.08
2019-05-29T13:03:02.957Z,100464.57
2019-05-29T13:05:35.148Z,100461.06
2019-05-29T13:08:06.870Z,100453.53
2019-05-29T13:10:38.713Z,100455.33
2019-05-29T13:13:11.385Z,100456.67
2019-05-29T13:15:43.371Z,100445.23
2019-05-29T13:18:15.105Z,100452.78
2019-05-29T13:20:46.860Z,100445.41
2019-05-29T13:23:18.609Z,100444.17
2019-05-29T13:25:50.341Z,100434.27
2019-05-29T13:28:22.102Z,100425.72
2019-05-29T13:30:55.723Z,100432.00
2019-05-29T13:33:27.880Z,100425.85
2019-05-29T13:36:00.200Z,100426.15
2019-05-29T13:38:32.252Z,100420.70
2019-05-29T13:41:04.544Z,100407.92
2019-05-29T13:43:36.471Z,100413.14
2019-05-29T13:46:08.726Z,100408.16
2019-05-29T13:48:43.194Z,100408.08
2019-05-29T13:51:14.968Z,100407.30
2019-05-29T13:54:01.989Z,100404.24
2019-05-29T13:56:24.071Z,100405.48
2019-05-29T13:58:53.667Z,100408.72
2019-05-29T14:01:25.377Z,100408.89
2019-05-29T14:04:02.489Z,100407.61
2019-05-29T14:06:34.441Z,100408.27
2019-05-29T14:09:09.804Z,100403.41
2019-05-29T14:11:41.933Z,100408.91
2019-05-29T14:14:13.903Z,100409.64
2019-05-29T14:16:47.149Z,100415.91
2019-05-29T14:19:18.898Z,100408.38
2019-05-29T14:21:50.704Z,100402.45
2019-05-29T14:24:29.340Z,100405.95
2019-05-29T14:26:56.010Z,100399.17
2019-05-29T14:29:27.849Z,100400.10
2019-05-29T14:32:00.980Z,100401.04
2019-05-29T14:34:34.788Z,100394.88
2019-05-29T14:37:09.760Z,100396.87
2019-05-29T14:39:41.743Z,100394.45
2019-05-29T14:42:13.483Z,100391.44
2019-05-29T14:44:46.895Z,100385.88
2019-05-29T14:47:18.701Z,100380.16
2019-05-29T14:49:50.551Z,100380.73
2019-05-29T14:52:22.374Z,100372.20
2019-05-29T14:54:54.436Z,100374.09
2019-05-29T14:57:28.684Z,100372.49
2019-05-29T15:00:00.528Z,100384.16
2019-05-29T15:02:33.351Z,100368.73
2019-05-29T15:05:05.633Z,100369.31
2019-05-29T15:07:39.224Z,100372.51
2019-05-29T15:10:24.856Z,100365.16
2019-05-29T15:12:48.350Z,100365.25
2019-05-29T15:15:20.075Z,100359.42
2019-05-29T15:17:53.783Z,100356.30
2019-05-29T15:20:25.559Z,100349.73
2019-05-29T15:22:57.277Z,100354.84
2019-05-29T15:25:29.218Z,100354.22
2019-05-29T15:28:00.979Z,100348.66
2019-05-29T15:30:32.827Z,100345.75
2019-05-29T15:33:04.665Z,100342.38
2019-05-29T15:35:36.427Z,100334.97
2019-05-29T15:38:08.719Z,100336.95
2019-05-29T15:40:40.857Z,100330.73
2019-05-29T15:43:12.896Z,100333.61
2019-05-29T15:45:45.072Z,100333.82
2019-05-29T15:48:18.893Z,100327.91
2019-05-29T15:50:50.671Z,100334.36
2019-05-29T15:53:23.468Z,100335.34
2019-05-29T15:55:55.228Z,100329.42
2019-05-29T15:58:27.387Z,100325.88
2019-05-29T16:00:59.313Z,100327.24
2019-05-29T16:03:31.075Z,100325.81
2019-05-29T16:06:02.843Z,100323.03
2019-05-29T16:08:35.848Z,100320.83
2019-05-29T16:11:08.595Z,100315.73
2019-05-29T16:13:40.527Z,100316.88
2019-05-29T16:16:13.125Z,100318.23
2019-05-29T16:18:45.019Z,100310.30
2019-05-29T16:21:16.903Z,100311.27
2019-05-29T16:23:48.707Z,100315.20
2019-05-29T16:26:22.043Z,100307.02
2019-05-29T16:28:53.839Z,100301.00
2019-05-29T16:31:25.607Z,100306.78
2019-05-29T16:33:57.367Z,100309.55
2019-05-29T16:36:29.101Z,100312.61
2019-05-29T16:39:01.291Z,100312.27
2019-05-29T16:41:34.551Z,100309.62
2019-05-29T16:44:06.801Z,100301.20
2019-05-29T16:46:38.517Z,100303.10
2019-05-29T16:49:10.288Z,100297.86
2019-05-29T16:51:42.272Z,100301.63
2019-05-29T16:54:14.946Z,100301.50
2019-05-29T16:56:47.098Z,100299.62
2019-05-29T16:59:19.249Z,100296.36
2019-05-29T17:01:51.428Z,100288.98
2019-05-29T17:04:23.905Z,100291.71
2019-05-29T17:06:55.770Z,100293.63
2019-05-29T17:09:27.535Z,100287.53
2019-05-29T17:12:00.376Z,100289.10
2019-05-29T17:14:33.949Z,100292.05
2019-05-29T17:17:08.256Z,100286.05
2019-05-29T17:19:41.927Z,100290.02
2019-05-29T17:22:16.591Z,100289.93
2019-05-29T17:24:50.043Z,100291.30
2019-05-29T17:27:23.505Z,100287.95
2019-05-29T17:29:55.210Z,100289.10
2019-05-29T17:32:27.673Z,100289.65
2019-05-29T17:34:59.461Z,100283.45
2019-05-29T17:37:31.329Z,100284.70
2019-05-29T17:40:03.332Z,100278.18
2019-05-29T17:42:35.130Z,100277.53
2019-05-29T17:45:08.687Z,100278.78
2019-05-29T17:47:41.072Z,100277.81
2019-05-29T17:50:12.944Z,100283.55
2019-05-29T17:52:44.843Z,100284.79
2019-05-29T17:55:19.976Z,100282.95
2019-05-29T17:57:53.342Z,100281.70
2019-05-29T18:00:26.563Z,100283.80
2019-05-29T18:02:58.633Z,100286.07
2019-05-29T18:05:30.914Z,100286.89
2019-05-29T18:08:02.648Z,100282.48
2019-05-29T18:10:34.819Z,100277.05
2019-05-29T18:13:06.601Z,100276.66
2019-05-29T18:15:38.511Z,100279.73
2019-05-29T18:18:10.421Z,100284.76
2019-05-29T18:20:42.343Z,100283.70
2019-05-29T18:23:14.066Z,100282.20
2019-05-29T18:25:45.951Z,100284.14
2019-05-29T18:28:17.780Z,100288.16
2019-05-29T18:30:49.653Z,100288.96
2019-05-29T18:33:22.875Z,100290.59
2019-05-29T18:35:54.789Z,100298.00
2019-05-29T18:38:26.628Z,100298.28
2019-05-29T18:40:58.484Z,100295.77
2019-05-29T18:43:30.243Z,100296.87
2019-05-29T18:46:04.293Z,100297.84
2019-05-29T18:48:37.142Z,100299.70
2019-05-29T18:51:08.964Z,100299.50
2019-05-29T18:53:40.751Z,100307.52
2019-05-29T18:56:12.553Z,100299.55
2019-05-29T18:58:44.291Z,100303.61
2019-05-29T19:01:16.049Z,100305.81
2019-05-29T19:03:48.161Z,100306.72
2019-05-29T19:06:21.423Z,100307.27
2019-05-29T19:08:53.366Z,100305.37
2019-05-29T19:11:25.871Z,100305.16
2019-05-29T19:13:57.748Z,100305.95
2019-05-29T19:16:30.036Z,100315.23
2019-05-29T19:19:02.003Z,100311.55
2019-05-29T19:21:33.789Z,100316.91
2019-05-29T19:24:05.613Z,100315.82
2019-05-29T19:26:37.649Z,100315.72
2019-05-29T19:29:09.475Z,100318.39
2019-05-29T19:31:42.869Z,100327.30
2019-05-29T19:34:16.601Z,100334.54
2019-05-29T19:36:48.520Z,100332.73
2019-05-29T19:39:20.331Z,100329.10
2019-05-29T19:41:54.003Z,100337.71
2019-05-29T19:44:26.241Z,100336.39
2019-05-29T19:46:58.614Z,100340.05
2019-05-29T19:49:33.005Z,100346.36
2019-05-29T19:52:06.871Z,100346.95
2019-05-29T19:54:38.606Z,100303.69
2019-05-29T19:57:10.425Z,100351.44
2019-05-29T19:59:42.211Z,100351.27
2019-05-29T20:02:14.059Z,100350.78
2019-05-29T20:04:45.802Z,100351.50
2019-05-29T20:07:17.633Z,100348.80
2019-05-29T20:09:49.413Z,100353.05
2019-05-29T20:12:21.295Z,100359.64
2019-05-29T20:14:53.547Z,100358.58
2019-05-29T20:17:27.932Z,100365.51
2019-05-29T20:20:00.050Z,100367.65
2019-05-29T20:22:32.587Z,100370.14
2019-05-29T20:25:05.573Z,100371.09
2019-05-29T20:27:38.530Z,100374.59
2019-05-29T20:30:16.320Z,100379.94
2019-05-29T20:32:48.526Z,100384.30
2019-05-29T20:35:20.491Z,100391.84
2019-05-29T20:37:52.627Z,100388.73
2019-05-29T20:40:25.685Z,100386.88
2019-05-29T20:42:57.513Z,100398.33
2019-05-29T20:45:29.828Z,100404.13
2019-05-29T20:48:01.752Z,100407.62
2019-05-29T20:50:36.999Z,100416.95
2019-05-29T20:53:09.345Z,100419.17
2019-05-29T20:55:41.905Z,100423.08
2019-05-29T20:58:24.161Z,100432.37
2019-05-29T21:00:49.442Z,100428.98
2019-05-29T21:03:21.309Z,100441.28
2019-05-29T21:05:53.930Z,100441.02
2019-05-29T21:08:46.824Z,100446.55
2019-05-29T21:11:21.748Z,100454.95
2019-05-29T21:13:53.561Z,100454.30
2019-05-29T21:16:26.789Z,100461.85
2019-05-29T21:18:58.632Z,100460.75
2019-05-29T21:21:34.116Z,100465.05
2019-05-29T21:24:06.303Z,100462.27
2019-05-29T21:26:38.919Z,100470.89
2019-05-29T21:29:13.659Z,100470.52
2019-05-29T21:31:45.781Z,100471.01
2019-05-29T21:34:17.976Z,100473.68
2019-05-29T21:36:50.043Z,100479.25
2019-05-29T21:39:22.069Z,100475.30
2019-05-29T21:41:54.452Z,100481.48
2019-05-29T21:44:27.906Z,100479.14
2019-05-29T21:46:59.888Z,100478.17
2019-05-29T21:49:32.025Z,100481.33
2019-05-29T21:52:03.926Z,100483.38
2019-05-29T21:54:37.327Z,100489.69
2019-05-29T21:57:10.640Z,100485.54
2019-05-29T21:59:42.411Z,100491.97
2019-05-29T22:02:14.215Z,100490.56
2019-05-29T22:04:46.492Z,100490.61
2019-05-29T22:07:18.609Z,100498.24
2019-05-29T22:09:54.493Z,100498.73
2019-05-29T22:12:32.830Z,100498.94
2019-05-29T22:15:06.274Z,100496.24
2019-05-29T22:17:38.579Z,100496.46
2019-05-29T22:20:10.443Z,100503.73
2019-05-29T22:22:42.398Z,100498.97
2019-05-29T22:25:14.384Z,100497.83
2019-05-29T22:27:46.273Z,100500.93
2019-05-29T22:30:18.031Z,100506.33
2019-05-29T22:32:51.155Z,100503.72
2019-05-29T22:35:23.864Z,100507.20
2019-05-29T22:37:55.767Z,100508.62
2019-05-29T22:40:27.455Z,100511.61
2019-05-29T22:42:59.875Z,100516.16
2019-05-29T22:45:31.716Z,100510.96
2019-05-29T22:48:05.720Z,100510.73
2019-05-29T22:50:39.888Z,100512.08
2019-05-29T22:53:12.897Z,100514.35
2019-05-29T22:55:46.448Z,100511.05
2019-05-29T22:58:20.539Z,100512.45
2019-05-29T23:00:54.342Z,100517.12
2019-05-29T23:03:26.120Z,100513.52
2019-05-29T23:05:58.284Z,100511.20
2019-05-29T23:08:30.034Z,100507.91
2019-05-29T23:11:03.002Z,100511.55
2019-05-29T23:13:35.304Z,100516.59
2019-05-29T23:16:07.191Z,100515.01
2019-05-29T23:18:39.000Z,100513.20
2019-05-29T23:21:10.865Z,100514.10
2019-05-29T23:23:42.907Z,100517.59
2019-05-29T23:26:14.862Z,100520.77
2019-05-29T23:28:48.690Z,100521.38
2019-05-29T23:31:22.142Z,100520.58
2019-05-29T23:34:03.158Z,100525.77
2019-05-29T23:36:35.848Z,100524.94
2019-05-29T23:39:08.246Z,100528.34
2019-05-29T23:41:40.285Z,100528.92
2019-05-29T23:44:12.306Z,100529.20
2019-05-29T23:47:17.561Z,100531.02
2019-05-29T23:50:07.197Z,100529.58
2019-05-29T23:52:40.177Z,100535.20
2019-05-29T23:55:16.030Z,100533.36
2019-05-29T23:57:53.717Z,100532.76
